createdAt,value
2018-04-18T00:01:20.559Z,0.00
2018-04-18T00:02:20.360Z,0.00
2018-04-18T00:04:13.659Z,0.00
2018-04-18T00:05:13.572Z,0.00
2018-04-18T00:07:06.841Z,0.00
2018-04-18T00:08:06.777Z,0.00
2018-04-18T00:10:00.073Z,0.00
2018-04-18T00:10:59.990Z,0.00
2018-04-18T00:12:53.372Z,0.00
2018-04-18T00:13:53.203Z,0.00
2018-04-18T00:15:46.500Z,0.00
2018-04-18T00:16:46.416Z,0.00
2018-04-18T00:18:39.692Z,0.00
2018-04-18T00:19:39.629Z,0.00
2018-04-18T00:21:32.922Z,0.00
2018-04-18T00:22:32.841Z,0.00
2018-04-18T00:24:26.240Z,0.00
2018-04-18T00:25:26.044Z,0.00
2018-04-18T00:27:19.322Z,0.00
2018-04-18T00:28:19.259Z,0.00
2018-04-18T00:30:12.555Z,0.00
2018-04-18T00:31:12.470Z,0.00
2018-04-18T00:33:05.735Z,0.00
2018-04-18T00:34:05.673Z,0.00
2018-04-18T00:35:58.968Z,0.00
2018-04-18T00:36:58.882Z,0.00
2018-04-18T00:38:52.765Z,0.00
2018-04-18T00:39:52.098Z,0.00
2018-04-18T00:41:45.392Z,0.00
2018-04-18T00:42:45.307Z,0.00
2018-04-18T00:44:38.604Z,0.00
2018-04-18T00:45:38.522Z,0.00
2018-04-18T00:47:31.788Z,0.00
2018-04-18T00:48:31.720Z,0.00
2018-04-18T00:50:25.009Z,0.00
2018-04-18T00:51:24.926Z,0.00
2018-04-18T00:53:18.200Z,0.00
2018-04-18T00:54:18.137Z,0.00
2018-04-18T00:56:11.535Z,0.00
2018-04-18T00:57:11.349Z,0.00
2018-04-18T00:59:04.623Z,0.00
2018-04-18T01:00:04.560Z,0.00
2018-04-18T01:01:57.960Z,0.00
2018-04-18T01:02:57.772Z,0.00
2018-04-18T01:04:51.069Z,0.00
2018-04-18T01:05:50.983Z,0.00
2018-04-18T01:07:44.322Z,0.00
2018-04-18T01:08:44.274Z,0.00
2018-04-18T01:10:37.660Z,0.00
2018-04-18T01:11:37.469Z,0.00
2018-04-18T01:13:30.742Z,0.00
2018-04-18T01:14:30.678Z,0.00
2018-04-18T01:16:23.971Z,0.00
2018-04-18T01:17:23.890Z,0.00
2018-04-18T01:19:17.272Z,0.00
2018-04-18T01:20:17.101Z,0.00
2018-04-18T01:22:10.500Z,0.00
2018-04-18T01:23:10.307Z,0.00
2018-04-18T01:25:03.595Z,0.00
2018-04-18T01:26:03.513Z,0.00
2018-04-18T01:27:56.787Z,0.00
2018-04-18T01:28:56.720Z,0.00
2018-04-18T01:30:50.017Z,0.00
2018-04-18T01:31:49.932Z,0.00
2018-04-18T01:33:43.313Z,0.00
2018-04-18T01:34:43.143Z,0.00
2018-04-18T01:36:36.438Z,0.00
2018-04-18T01:37:36.352Z,0.00
2018-04-18T01:39:29.628Z,0.00
2018-04-18T01:40:29.574Z,0.00
2018-04-18T01:42:22.859Z,0.00
2018-04-18T01:43:22.778Z,0.00
2018-04-18T01:45:16.068Z,0.00
2018-04-18T01:46:15.986Z,0.00
2018-04-18T01:48:09.260Z,0.00
2018-04-18T01:49:09.195Z,0.00
2018-04-18T01:51:02.488Z,0.00
2018-04-18T01:52:02.405Z,0.00
2018-04-18T01:53:55.680Z,0.00
2018-04-18T01:54:55.615Z,0.00
2018-04-18T01:56:49.014Z,0.00
2018-04-18T01:57:48.817Z,0.00
2018-04-18T01:59:42.093Z,0.00
2018-04-18T02:00:42.028Z,0.00
2018-04-18T02:02:35.320Z,0.00
2018-04-18T02:03:35.239Z,0.00
2018-04-18T02:05:28.531Z,0.00
2018-04-18T02:06:28.454Z,0.00
2018-04-18T02:08:21.722Z,0.00
2018-04-18T02:09:21.685Z,0.00
2018-04-18T02:11:14.950Z,0.00
2018-04-18T02:12:14.867Z,0.00
2018-04-18T02:14:08.143Z,0.00
2018-04-18T02:15:08.074Z,0.00
2018-04-18T02:17:01.357Z,0.00
2018-04-18T02:18:01.276Z,0.00
2018-04-18T02:19:54.549Z,0.00
2018-04-18T02:20:54.483Z,0.00
2018-04-18T02:22:47.781Z,0.00
2018-04-18T02:23:47.693Z,0.00
2018-04-18T02:25:40.985Z,0.00
2018-04-18T02:26:40.904Z,0.00
2018-04-18T02:28:34.181Z,0.00
2018-04-18T02:29:34.113Z,0.00
2018-04-18T02:31:27.405Z,0.00
2018-04-18T02:32:27.321Z,0.00
2018-04-18T02:34:20.585Z,0.00
2018-04-18T02:35:20.528Z,0.00
2018-04-18T02:37:13.805Z,0.00
2018-04-18T02:38:13.725Z,0.00
2018-04-18T02:40:07.013Z,0.00
2018-04-18T02:41:06.929Z,0.00
2018-04-18T02:43:00.223Z,0.00
2018-04-18T02:44:00.139Z,0.00
2018-04-18T02:45:53.535Z,0.00
2018-04-18T02:46:53.357Z,0.00
2018-04-18T02:48:46.629Z,0.00
2018-04-18T02:49:46.567Z,0.00
2018-04-18T02:51:39.857Z,0.00
2018-04-18T02:52:39.774Z,0.00
2018-04-18T02:54:33.046Z,0.00
2018-04-18T02:55:32.980Z,0.00
2018-04-18T02:57:26.338Z,0.00
2018-04-18T02:58:26.253Z,0.00
2018-04-18T03:00:19.570Z,0.00
2018-04-18T03:01:19.460Z,0.00
2018-04-18T03:03:12.733Z,0.00
2018-04-18T03:04:12.669Z,0.00
2018-04-18T03:06:06.063Z,0.00
2018-04-18T03:07:05.873Z,0.00
2018-04-18T03:08:59.151Z,0.00
2018-04-18T03:09:59.080Z,0.00
2018-04-18T03:11:52.373Z,0.00
2018-04-18T03:12:52.289Z,0.00
2018-04-18T03:14:45.561Z,0.00
2018-04-18T03:15:45.497Z,0.00
2018-04-18T03:17:38.789Z,0.00
2018-04-18T03:18:38.706Z,0.00
2018-04-18T03:20:32.113Z,0.00
2018-04-18T03:21:31.915Z,0.00
2018-04-18T03:23:25.177Z,0.00
2018-04-18T03:24:25.112Z,0.00
2018-04-18T03:26:18.406Z,0.00
2018-04-18T03:27:18.322Z,0.00
2018-04-18T03:29:11.584Z,0.00
2018-04-18T03:30:11.519Z,0.00
2018-04-18T03:32:04.811Z,0.00
2018-04-18T03:33:04.727Z,0.00
2018-04-18T03:34:58.002Z,0.00
2018-04-18T03:35:57.995Z,0.00
2018-04-18T03:37:51.227Z,0.00
2018-04-18T03:38:51.144Z,0.00
2018-04-18T03:40:44.579Z,0.00
2018-04-18T03:41:44.350Z,0.00
2018-04-18T03:43:37.621Z,0.00
2018-04-18T03:44:37.557Z,0.00
2018-04-18T03:46:30.848Z,0.00
2018-04-18T03:47:30.795Z,0.00
2018-04-18T03:49:24.037Z,0.00
2018-04-18T03:50:23.972Z,0.00
2018-04-18T03:52:17.268Z,4.00
2018-04-18T03:53:17.179Z,4.00
2018-04-18T03:55:10.451Z,4.00
2018-04-18T03:56:10.386Z,4.00
2018-04-18T03:58:03.681Z,4.00
2018-04-18T03:59:03.599Z,8.00
2018-04-18T04:00:56.994Z,8.00
2018-04-18T04:01:56.803Z,8.00
2018-04-18T04:03:50.075Z,8.00
2018-04-18T04:04:50.012Z,12.00
2018-04-18T04:06:43.300Z,16.00
2018-04-18T04:07:43.218Z,16.00
2018-04-18T04:09:36.489Z,24.00
2018-04-18T04:10:36.426Z,28.00
2018-04-18T04:12:29.712Z,36.00
2018-04-18T04:13:29.631Z,40.00
2018-04-18T04:15:22.903Z,52.00
2018-04-18T04:16:22.837Z,60.00
2018-04-18T04:18:16.237Z,76.00
2018-04-18T04:19:16.044Z,84.00
2018-04-18T04:21:09.440Z,104.00
2018-04-18T04:22:09.241Z,116.00
2018-04-18T04:24:02.619Z,140.00
2018-04-18T04:25:02.438Z,152.00
2018-04-18T04:26:55.723Z,180.00
2018-04-18T04:27:55.635Z,196.00
2018-04-18T04:29:48.896Z,228.00
2018-04-18T04:30:48.832Z,248.00
2018-04-18T04:32:42.111Z,284.00
2018-04-18T04:33:42.031Z,304.00
2018-04-18T04:35:35.291Z,348.00
2018-04-18T04:36:35.225Z,368.00
2018-04-18T04:38:28.504Z,416.00
2018-04-18T04:39:28.420Z,444.00
2018-04-18T04:41:21.700Z,492.00
2018-04-18T04:42:21.619Z,524.00
2018-04-18T04:44:14.875Z,580.00
2018-04-18T04:45:14.811Z,608.00
2018-04-18T04:47:08.094Z,672.00
2018-04-18T04:48:08.005Z,704.00
2018-04-18T04:50:01.266Z,764.00
2018-04-18T04:51:01.203Z,796.00
2018-04-18T04:52:54.481Z,860.00
2018-04-18T04:53:54.397Z,892.00
2018-04-18T04:55:47.656Z,956.00
2018-04-18T04:56:47.592Z,992.00
2018-04-18T04:58:40.871Z,1056.00
2018-04-18T04:59:40.789Z,1088.00
2018-04-18T05:01:34.184Z,1148.00
2018-04-18T05:02:34.034Z,1180.00
2018-04-18T05:04:27.243Z,1240.00
2018-04-18T05:05:27.178Z,1268.00
2018-04-18T05:07:20.574Z,1332.00
2018-04-18T05:08:20.375Z,1372.00
2018-04-18T05:10:13.753Z,1424.00
2018-04-18T05:11:13.569Z,1452.00
2018-04-18T05:13:06.858Z,1504.00
2018-04-18T05:14:06.765Z,1532.00
2018-04-18T05:16:00.025Z,1584.00
2018-04-18T05:16:59.960Z,1608.00
2018-04-18T05:18:53.237Z,1656.00
2018-04-18T05:19:53.152Z,1680.00
2018-04-18T05:21:46.457Z,1728.00
2018-04-18T05:22:46.349Z,1752.00
2018-04-18T05:24:39.729Z,1800.00
2018-04-18T05:25:39.541Z,1828.00
2018-04-18T05:27:32.832Z,1876.00
2018-04-18T05:28:32.748Z,1904.00
2018-04-18T05:30:26.022Z,1956.00
2018-04-18T05:31:25.952Z,1976.00
2018-04-18T05:33:19.242Z,2016.00
2018-04-18T05:34:19.159Z,2036.00
2018-04-18T05:36:12.428Z,2072.00
2018-04-18T05:37:12.362Z,2092.00
2018-04-18T05:39:05.647Z,2128.00
2018-04-18T05:40:05.567Z,2152.00
2018-04-18T05:41:58.849Z,2192.00
2018-04-18T05:42:58.769Z,2204.00
2018-04-18T05:44:52.041Z,2232.00
2018-04-18T05:45:51.971Z,2248.00
2018-04-18T05:47:45.251Z,2284.00
2018-04-18T05:48:45.167Z,2296.00
2018-04-18T05:50:38.542Z,2332.00
2018-04-18T05:51:38.373Z,2348.00
2018-04-18T05:53:31.657Z,2372.00
2018-04-18T05:54:31.575Z,2388.00
2018-04-18T05:56:24.849Z,2396.00
2018-04-18T05:57:24.778Z,2404.00
2018-04-18T05:59:18.068Z,2428.00
2018-04-18T06:00:17.988Z,2444.00
2018-04-18T06:02:11.275Z,2472.00
2018-04-18T06:03:11.189Z,2492.00
2018-04-18T06:05:04.567Z,2512.00
2018-04-18T06:06:04.395Z,2524.00
2018-04-18T06:07:57.686Z,2552.00
2018-04-18T06:08:57.600Z,2560.00
2018-04-18T06:10:50.873Z,2572.00
2018-04-18T06:11:50.810Z,2584.00
2018-04-18T06:13:44.097Z,2608.00
2018-04-18T06:14:44.015Z,2620.00
2018-04-18T06:16:37.288Z,2636.00
2018-04-18T06:17:37.222Z,2640.00
2018-04-18T06:19:30.621Z,2664.00
2018-04-18T06:20:30.430Z,2676.00
2018-04-18T06:22:23.719Z,2696.00
2018-04-18T06:23:23.636Z,2708.00
2018-04-18T06:25:16.911Z,2728.00
2018-04-18T06:26:16.845Z,2732.00
2018-04-18T06:28:10.137Z,2740.00
2018-04-18T06:29:10.054Z,2752.00
2018-04-18T06:31:03.324Z,2768.00
2018-04-18T06:32:03.261Z,2776.00
2018-04-18T06:33:56.553Z,2800.00
2018-04-18T06:34:56.475Z,2808.00
2018-04-18T06:36:49.737Z,2840.00
2018-04-18T06:37:49.672Z,2848.00
2018-04-18T06:39:42.965Z,2876.00
2018-04-18T06:40:42.882Z,2884.00
2018-04-18T06:42:36.174Z,2916.00
2018-04-18T06:43:36.093Z,2932.00
2018-04-18T06:45:29.357Z,2952.00
2018-04-18T06:46:29.297Z,2964.00
2018-04-18T06:48:22.695Z,2992.00
2018-04-18T06:49:22.497Z,3012.00
2018-04-18T06:51:15.772Z,3044.00
2018-04-18T06:52:15.700Z,3068.00
2018-04-18T06:54:08.986Z,3120.00
2018-04-18T06:55:08.905Z,3152.00
2018-04-18T06:57:02.290Z,3208.00
2018-04-18T06:58:02.114Z,3256.00
2018-04-18T06:59:55.400Z,3344.00
2018-04-18T07:00:55.317Z,3408.00
2018-04-18T07:02:48.607Z,3468.00
2018-04-18T07:03:48.520Z,3496.00
2018-04-18T07:05:41.791Z,3552.00
2018-04-18T07:06:41.728Z,3588.00
2018-04-18T07:08:35.016Z,3640.00
2018-04-18T07:09:34.935Z,3656.00
2018-04-18T07:11:28.211Z,3696.00
2018-04-18T07:12:28.148Z,3712.00
2018-04-18T07:14:21.454Z,3752.00
2018-04-18T07:15:21.375Z,3772.00
2018-04-18T07:17:14.663Z,3824.00
2018-04-18T07:18:14.602Z,3860.00
2018-04-18T07:20:07.889Z,3980.00
2018-04-18T07:21:07.809Z,4092.00
2018-04-18T07:23:01.100Z,4432.00
2018-04-18T07:24:01.018Z,4632.00
2018-04-18T07:25:54.291Z,5548.00
2018-04-18T07:26:54.230Z,6232.00
2018-04-18T07:28:47.523Z,6872.00
2018-04-18T07:29:47.434Z,6976.00
2018-04-18T07:31:40.710Z,7080.00
2018-04-18T07:32:40.646Z,7088.00
2018-04-18T07:34:33.943Z,7084.00
2018-04-18T07:35:33.859Z,7068.00
2018-04-18T07:37:27.133Z,7036.00
2018-04-18T07:38:27.067Z,7020.00
2018-04-18T07:40:20.372Z,6948.00
2018-04-18T07:41:20.291Z,6976.00
2018-04-18T07:43:13.584Z,6936.00
2018-04-18T07:44:13.508Z,6904.00
2018-04-18T07:46:06.798Z,6888.00
2018-04-18T07:47:06.736Z,6864.00
2018-04-18T07:49:00.032Z,6852.00
2018-04-18T07:49:59.957Z,6828.00
2018-04-18T07:51:53.239Z,6812.00
2018-04-18T07:52:53.179Z,6776.00
2018-04-18T07:54:46.590Z,6644.00
2018-04-18T07:55:46.401Z,6648.00
2018-04-18T07:57:39.803Z,6636.00
2018-04-18T07:58:39.627Z,6648.00
2018-04-18T08:00:32.922Z,6588.00
2018-04-18T08:01:32.852Z,6608.00
2018-04-18T08:03:26.147Z,6640.00
2018-04-18T08:04:26.072Z,6620.00
2018-04-18T08:06:19.357Z,6700.00
2018-04-18T08:07:19.297Z,6720.00
2018-04-18T08:09:12.599Z,6724.00
2018-04-18T08:10:12.524Z,6684.00
2018-04-18T08:12:05.803Z,6752.00
2018-04-18T08:13:05.747Z,6756.00
2018-04-18T08:14:59.092Z,6820.00
2018-04-18T08:15:59.021Z,6836.00
2018-04-18T08:17:52.406Z,6864.00
2018-04-18T08:18:52.246Z,6856.00
2018-04-18T08:20:45.654Z,6956.00
2018-04-18T08:21:45.478Z,6928.00
2018-04-18T08:23:38.782Z,7048.00
2018-04-18T08:24:38.708Z,7104.00
2018-04-18T08:26:31.990Z,7080.00
2018-04-18T08:27:31.938Z,7120.00
2018-04-18T08:29:25.851Z,7052.00
2018-04-18T08:30:25.161Z,6944.00
2018-04-18T08:32:18.455Z,7024.00
2018-04-18T08:33:18.399Z,7192.00
2018-04-18T08:35:11.692Z,7356.00
2018-04-18T08:36:11.617Z,7380.00
2018-04-18T08:38:04.899Z,7460.00
2018-04-18T08:39:04.843Z,7448.00
2018-04-18T08:40:58.252Z,7528.00
2018-04-18T08:41:58.071Z,7648.00
2018-04-18T08:43:51.479Z,7740.00
2018-04-18T08:44:51.297Z,7780.00
2018-04-18T08:46:44.579Z,7832.00
2018-04-18T08:47:44.523Z,7752.00
2018-04-18T08:49:37.824Z,7740.00
2018-04-18T08:50:37.751Z,7228.00
2018-04-18T08:52:31.039Z,7608.00
2018-04-18T08:53:30.983Z,6880.00
2018-04-18T08:55:24.287Z,7752.00
2018-04-18T08:56:24.220Z,7732.00
2018-04-18T08:58:17.497Z,7584.00
2018-04-18T08:59:17.445Z,7656.00
2018-04-18T09:01:10.748Z,7868.00
2018-04-18T09:02:10.730Z,7808.00
2018-04-18T09:04:04.088Z,7828.00
2018-04-18T09:05:03.913Z,7844.00
2018-04-18T09:06:57.204Z,7608.00
2018-04-18T09:07:57.163Z,7720.00
2018-04-18T09:09:50.591Z,7964.00
2018-04-18T09:10:50.381Z,8056.00
2018-04-18T09:12:43.673Z,7896.00
2018-04-18T09:13:43.618Z,7964.00
2018-04-18T09:15:37.084Z,7752.00
2018-04-18T09:16:36.857Z,7724.00
2018-04-18T09:18:30.145Z,7668.00
2018-04-18T09:19:30.091Z,7900.00
2018-04-18T09:21:23.503Z,7912.00
2018-04-18T09:22:23.325Z,8000.00
2018-04-18T09:24:16.657Z,7808.00
2018-04-18T09:25:16.575Z,7992.00
2018-04-18T09:27:09.857Z,7900.00
2018-04-18T09:28:09.806Z,8160.00
2018-04-18T09:30:03.110Z,8148.00
2018-04-18T09:31:03.038Z,8244.00
2018-04-18T09:32:56.329Z,8348.00
2018-04-18T09:33:56.277Z,8464.00
2018-04-18T09:35:49.577Z,8412.00
2018-04-18T09:36:49.505Z,8336.00
2018-04-18T09:38:42.791Z,8512.00
2018-04-18T09:39:42.778Z,8520.00
2018-04-18T09:41:36.065Z,8752.00
2018-04-18T09:42:35.974Z,8784.00
2018-04-18T09:44:29.347Z,8756.00
2018-04-18T09:45:29.275Z,8804.00
2018-04-18T09:47:22.567Z,8744.00
2018-04-18T09:48:22.513Z,8624.00
2018-04-18T09:50:15.840Z,8568.00
2018-04-18T09:51:15.757Z,8644.00
2018-04-18T09:53:09.038Z,8620.00
2018-04-18T09:54:08.990Z,8556.00
2018-04-18T09:56:02.404Z,8616.00
2018-04-18T09:57:02.234Z,8840.00
2018-04-18T09:58:55.522Z,8812.00
2018-04-18T09:59:55.472Z,8748.00
2018-04-18T10:01:48.780Z,8636.00
2018-04-18T10:02:48.711Z,8656.00
2018-04-18T10:04:42.017Z,8832.00
2018-04-18T10:05:41.951Z,9000.00
2018-04-18T10:07:35.242Z,9040.00
2018-04-18T10:08:35.189Z,9424.00
2018-04-18T10:10:29.349Z,11252.00
2018-04-18T10:11:29.283Z,14096.00
2018-04-18T10:13:22.582Z,19104.00
2018-04-18T10:14:22.530Z,18368.00
2018-04-18T10:16:15.976Z,13600.00
2018-04-18T10:17:15.769Z,12228.00
2018-04-18T10:19:09.060Z,11592.00
2018-04-18T10:20:09.010Z,10528.00
2018-04-18T10:22:02.318Z,9960.00
2018-04-18T10:23:02.285Z,9996.00
2018-04-18T10:24:55.560Z,9940.00
2018-04-18T10:25:55.493Z,10036.00
2018-04-18T10:27:48.782Z,10244.00
2018-04-18T10:28:48.729Z,10556.00
2018-04-18T10:30:42.038Z,10512.00
2018-04-18T10:31:41.986Z,10192.00
2018-04-18T10:33:35.331Z,9620.00
2018-04-18T10:34:35.278Z,9508.00
2018-04-18T10:36:29.439Z,9640.00
2018-04-18T10:37:29.369Z,9588.00
2018-04-18T10:39:22.765Z,9368.00
2018-04-18T10:40:22.607Z,9108.00
2018-04-18T10:42:15.915Z,9268.00
2018-04-18T10:43:15.860Z,9256.00
2018-04-18T10:45:09.163Z,9040.00
2018-04-18T10:46:09.092Z,8792.00
2018-04-18T10:48:02.380Z,8764.00
2018-04-18T10:49:02.334Z,8724.00
2018-04-18T10:50:55.635Z,8280.00
2018-04-18T10:51:55.565Z,8520.00
2018-04-18T10:53:48.856Z,8708.00
2018-04-18T10:54:48.803Z,8800.00
2018-04-18T10:56:42.113Z,8812.00
2018-04-18T10:57:42.044Z,8996.00
2018-04-18T10:59:35.439Z,9348.00
2018-04-18T11:00:35.283Z,9588.00
2018-04-18T11:02:28.700Z,9572.00
2018-04-18T11:03:28.526Z,9700.00
2018-04-18T11:05:21.836Z,9380.00
2018-04-18T11:06:21.765Z,9176.00
2018-04-18T11:08:15.163Z,9132.00
2018-04-18T11:09:15.007Z,9048.00
2018-04-18T11:11:08.423Z,8012.00
2018-04-18T11:12:08.246Z,6952.00
2018-04-18T11:14:01.538Z,6776.00
2018-04-18T11:15:01.491Z,6732.00
2018-04-18T11:16:54.899Z,6600.00
2018-04-18T11:17:54.723Z,6516.00
2018-04-18T11:19:48.116Z,6604.00
2018-04-18T11:20:47.962Z,6640.00
2018-04-18T11:22:41.376Z,6696.00
2018-04-18T11:23:41.276Z,6740.00
2018-04-18T11:25:34.691Z,6868.00
2018-04-18T11:26:34.510Z,6868.00
2018-04-18T11:28:27.797Z,6904.00
2018-04-18T11:29:27.743Z,6924.00
2018-04-18T11:31:21.046Z,7048.00
2018-04-18T11:32:20.978Z,7000.00
2018-04-18T11:34:14.259Z,6992.00
2018-04-18T11:35:14.206Z,6916.00
2018-04-18T11:37:07.620Z,6792.00
2018-04-18T11:38:07.441Z,6792.00
2018-04-18T11:40:00.724Z,6756.00
2018-04-18T11:41:00.721Z,6684.00
2018-04-18T11:42:54.082Z,6648.00
2018-04-18T11:43:53.903Z,6524.00
2018-04-18T11:45:47.206Z,6556.00
2018-04-18T11:46:47.137Z,6364.00
2018-04-18T11:48:40.525Z,6364.00
2018-04-18T11:49:40.373Z,6320.00
2018-04-18T11:51:33.675Z,6244.00
2018-04-18T11:52:33.602Z,6444.00
2018-04-18T11:54:27.000Z,6716.00
2018-04-18T11:55:26.828Z,6704.00
2018-04-18T11:57:20.136Z,6504.00
2018-04-18T11:58:20.068Z,6548.00
2018-04-18T12:00:13.345Z,6388.00
2018-04-18T12:01:13.291Z,6484.00
2018-04-18T12:03:06.702Z,6512.00
2018-04-18T12:04:06.527Z,6412.00
2018-04-18T12:05:59.822Z,6436.00
2018-04-18T12:06:59.749Z,6400.00
2018-04-18T12:08:53.034Z,6492.00
2018-04-18T12:09:52.980Z,6496.00
2018-04-18T12:11:46.282Z,6620.00
2018-04-18T12:12:46.210Z,6644.00
2018-04-18T12:14:39.601Z,6632.00
2018-04-18T12:15:39.436Z,6476.00
2018-04-18T12:17:32.738Z,6312.00
2018-04-18T12:18:32.667Z,6400.00
2018-04-18T12:20:26.962Z,6400.00
2018-04-18T12:21:26.895Z,6384.00
2018-04-18T12:23:20.216Z,6208.00
2018-04-18T12:24:20.121Z,6308.00
2018-04-18T12:26:13.552Z,6084.00
2018-04-18T12:27:13.366Z,6252.00
2018-04-18T12:29:06.752Z,5756.00
2018-04-18T12:30:06.590Z,6184.00
2018-04-18T12:32:00.000Z,5788.00
2018-04-18T12:32:59.818Z,5616.00
2018-04-18T12:34:54.100Z,5740.00
2018-04-18T12:35:54.047Z,6424.00
2018-04-18T12:37:47.350Z,6428.00
2018-04-18T12:38:47.279Z,6312.00
2018-04-18T12:40:41.179Z,6264.00
2018-04-18T12:41:40.509Z,6116.00
2018-04-18T12:43:33.831Z,6316.00
2018-04-18T12:44:33.740Z,6168.00
2018-04-18T12:46:27.037Z,6388.00
2018-04-18T12:47:26.965Z,6440.00
2018-04-18T12:49:20.359Z,6288.00
2018-04-18T12:50:20.193Z,6180.00
2018-04-18T12:52:13.527Z,6112.00
2018-04-18T12:53:13.444Z,6240.00
2018-04-18T12:55:06.824Z,6412.00
2018-04-18T12:56:06.662Z,6076.00
2018-04-18T12:57:59.962Z,6404.00
2018-04-18T12:58:59.889Z,6336.00
2018-04-18T13:00:53.192Z,6024.00
2018-04-18T13:01:53.125Z,6136.00
2018-04-18T13:03:46.436Z,6256.00
2018-04-18T13:04:46.367Z,6196.00
2018-04-18T13:06:39.672Z,6004.00
2018-04-18T13:07:39.601Z,5852.00
2018-04-18T13:09:32.877Z,5604.00
2018-04-18T13:10:32.823Z,5796.00
2018-04-18T13:12:26.130Z,5944.00
2018-04-18T13:13:26.054Z,6048.00
2018-04-18T13:15:19.336Z,6204.00
2018-04-18T13:16:19.286Z,6028.00
2018-04-18T13:18:12.691Z,6024.00
2018-04-18T13:19:12.522Z,5864.00
2018-04-18T13:21:05.912Z,5820.00
2018-04-18T13:22:05.748Z,5864.00
2018-04-18T13:23:59.165Z,5720.00
2018-04-18T13:24:58.979Z,5652.00
2018-04-18T13:26:52.278Z,5648.00
2018-04-18T13:27:52.208Z,5496.00
2018-04-18T13:29:45.491Z,5660.00
2018-04-18T13:30:45.441Z,5624.00
2018-04-18T13:32:38.738Z,5868.00
2018-04-18T13:33:38.666Z,5692.00
2018-04-18T13:35:31.950Z,5580.00
2018-04-18T13:36:31.899Z,5516.00
2018-04-18T13:38:25.308Z,5280.00
2018-04-18T13:39:25.122Z,5236.00
2018-04-18T13:41:18.404Z,5424.00
2018-04-18T13:42:18.352Z,5728.00
2018-04-18T13:44:11.765Z,5664.00
2018-04-18T13:45:11.591Z,5576.00
2018-04-18T13:47:05.004Z,5652.00
2018-04-18T13:48:04.823Z,5688.00
2018-04-18T13:49:58.115Z,5608.00
2018-04-18T13:50:58.063Z,5692.00
2018-04-18T13:52:51.475Z,5660.00
2018-04-18T13:53:51.288Z,5668.00
2018-04-18T13:55:44.574Z,5564.00
2018-04-18T13:56:44.526Z,5528.00
2018-04-18T13:58:37.837Z,5312.00
2018-04-18T13:59:37.761Z,5128.00
2018-04-18T14:01:31.056Z,5268.00
2018-04-18T14:02:31.014Z,5184.00
2018-04-18T14:04:24.316Z,5156.00
2018-04-18T14:05:24.245Z,5172.00
2018-04-18T14:07:17.549Z,5212.00
2018-04-18T14:08:17.474Z,5220.00
2018-04-18T14:10:10.768Z,5116.00
2018-04-18T14:11:10.715Z,5176.00
2018-04-18T14:13:04.015Z,5172.00
2018-04-18T14:14:03.943Z,5084.00
2018-04-18T14:15:57.227Z,4932.00
2018-04-18T14:16:57.173Z,4808.00
2018-04-18T14:18:50.472Z,4924.00
2018-04-18T14:19:50.403Z,4900.00
2018-04-18T14:21:43.795Z,4976.00
2018-04-18T14:22:43.632Z,5064.00
2018-04-18T14:24:36.934Z,5152.00
2018-04-18T14:25:36.860Z,5152.00
2018-04-18T14:27:30.270Z,5268.00
2018-04-18T14:28:30.091Z,5136.00
2018-04-18T14:30:23.375Z,5096.00
2018-04-18T14:31:23.324Z,4864.00
2018-04-18T14:33:16.627Z,5312.00
2018-04-18T14:34:16.550Z,5428.00
2018-04-18T14:36:09.945Z,5440.00
2018-04-18T14:37:09.781Z,5356.00
2018-04-18T14:39:03.082Z,5256.00
2018-04-18T14:40:03.013Z,5180.00
2018-04-18T14:41:56.293Z,5060.00
2018-04-18T14:42:56.240Z,5072.00
2018-04-18T14:44:49.541Z,5104.00
2018-04-18T14:45:49.500Z,4920.00
2018-04-18T14:47:43.381Z,4896.00
2018-04-18T14:48:42.705Z,4908.00
2018-04-18T14:50:35.984Z,4848.00
2018-04-18T14:51:35.933Z,4884.00
2018-04-18T14:53:29.240Z,4856.00
2018-04-18T14:54:29.165Z,4820.00
2018-04-18T14:56:22.477Z,4904.00
2018-04-18T14:57:22.423Z,4884.00
2018-04-18T14:59:15.832Z,4984.00
2018-04-18T15:00:15.651Z,4940.00
2018-04-18T15:02:08.935Z,4948.00
2018-04-18T15:03:08.882Z,4880.00
2018-04-18T15:05:02.309Z,4880.00
2018-04-18T15:06:02.112Z,4856.00
2018-04-18T15:07:55.424Z,4864.00
2018-04-18T15:08:55.352Z,4864.00
2018-04-18T15:10:48.663Z,4776.00
2018-04-18T15:11:48.584Z,4736.00
2018-04-18T15:13:41.901Z,4652.00
2018-04-18T15:14:41.830Z,4528.00
2018-04-18T15:16:35.112Z,4520.00
2018-04-18T15:17:35.064Z,4412.00
2018-04-18T15:19:28.977Z,4452.00
2018-04-18T15:20:28.290Z,4352.00
2018-04-18T15:22:21.576Z,4456.00
2018-04-18T15:23:21.524Z,4532.00
2018-04-18T15:25:14.826Z,4420.00
2018-04-18T15:26:14.754Z,4388.00
2018-04-18T15:28:08.055Z,4288.00
2018-04-18T15:29:07.987Z,4116.00
2018-04-18T15:31:00.804Z,4064.00
2018-04-18T15:32:00.751Z,4148.00
2018-04-18T15:33:54.055Z,4264.00
2018-04-18T15:34:53.982Z,4256.00
2018-04-18T15:36:47.330Z,4120.00
2018-04-18T15:37:47.276Z,4140.00
2018-04-18T15:39:40.687Z,4244.00
2018-04-18T15:40:40.512Z,4232.00
2018-04-18T15:42:33.900Z,4092.00
2018-04-18T15:43:33.739Z,4036.00
2018-04-18T15:45:27.048Z,4052.00
2018-04-18T15:46:26.971Z,4040.00
2018-04-18T15:48:20.276Z,3916.00
2018-04-18T15:49:20.202Z,3872.00
2018-04-18T15:51:13.595Z,3756.00
2018-04-18T15:52:13.432Z,3608.00
2018-04-18T15:54:06.736Z,3680.00
2018-04-18T15:55:06.669Z,3732.00
2018-04-18T15:56:59.950Z,3684.00
2018-04-18T15:57:59.897Z,3632.00
2018-04-18T15:59:53.199Z,3612.00
2018-04-18T16:00:53.126Z,3620.00
2018-04-18T16:02:46.521Z,3484.00
2018-04-18T16:03:46.358Z,3520.00
2018-04-18T16:05:39.665Z,3508.00
2018-04-18T16:06:39.592Z,3484.00
2018-04-18T16:08:32.897Z,3396.00
2018-04-18T16:09:32.829Z,3388.00
2018-04-18T16:11:26.118Z,3376.00
2018-04-18T16:12:26.057Z,3348.00
2018-04-18T16:14:19.470Z,3288.00
2018-04-18T16:15:19.287Z,3296.00
2018-04-18T16:17:12.680Z,3280.00
2018-04-18T16:18:12.536Z,3440.00
2018-04-18T16:20:05.843Z,3264.00
2018-04-18T16:21:05.761Z,3184.00
2018-04-18T16:22:59.155Z,3112.00
2018-04-18T16:23:58.995Z,3096.00
2018-04-18T16:25:52.294Z,3036.00
2018-04-18T16:26:52.222Z,3016.00
2018-04-18T16:28:45.525Z,2916.00
2018-04-18T16:29:45.453Z,2876.00
2018-04-18T16:31:38.744Z,2820.00
2018-04-18T16:32:38.684Z,2808.00
2018-04-18T16:34:31.991Z,2768.00
2018-04-18T16:35:31.916Z,2788.00
2018-04-18T16:37:25.201Z,2768.00
2018-04-18T16:38:25.145Z,2684.00
2018-04-18T16:40:18.446Z,2740.00
2018-04-18T16:41:18.374Z,2728.00
2018-04-18T16:43:11.656Z,2684.00
2018-04-18T16:44:11.603Z,2592.00
2018-04-18T16:46:04.905Z,2636.00
2018-04-18T16:47:04.832Z,2608.00
2018-04-18T16:48:58.133Z,2544.00
2018-04-18T16:49:58.062Z,2508.00
2018-04-18T16:51:51.345Z,2428.00
2018-04-18T16:52:51.290Z,2436.00
2018-04-18T16:54:44.591Z,2424.00
2018-04-18T16:55:44.520Z,2412.00
2018-04-18T16:57:37.795Z,2360.00
2018-04-18T16:58:37.750Z,2304.00
2018-04-18T17:00:31.042Z,2256.00
2018-04-18T17:01:30.969Z,2260.00
2018-04-18T17:03:24.252Z,2228.00
2018-04-18T17:04:24.203Z,2200.00
2018-04-18T17:06:17.499Z,2120.00
2018-04-18T17:07:17.433Z,2120.00
2018-04-18T17:09:10.729Z,2100.00
2018-04-18T17:10:10.658Z,2088.00
2018-04-18T17:12:03.951Z,2048.00
2018-04-18T17:13:03.897Z,2000.00
2018-04-18T17:14:57.233Z,1944.00
2018-04-18T17:15:57.129Z,1912.00
2018-04-18T17:17:50.411Z,1868.00
2018-04-18T17:18:50.355Z,1832.00
2018-04-18T17:20:43.656Z,1736.00
2018-04-18T17:21:43.583Z,1680.00
2018-04-18T17:23:36.994Z,1628.00
2018-04-18T17:24:36.813Z,1612.00
2018-04-18T17:26:30.135Z,1564.00
2018-04-18T17:27:30.060Z,1552.00
2018-04-18T17:29:23.359Z,1464.00
2018-04-18T17:30:23.284Z,1428.00
2018-04-18T17:32:16.568Z,1404.00
2018-04-18T17:33:16.516Z,1352.00
2018-04-18T17:35:09.816Z,1348.00
2018-04-18T17:36:09.741Z,1320.00
2018-04-18T17:38:03.134Z,1244.00
2018-04-18T17:39:02.969Z,1188.00
2018-04-18T17:40:56.356Z,1136.00
2018-04-18T17:41:56.196Z,1132.00
2018-04-18T17:43:49.513Z,1080.00
2018-04-18T17:44:49.435Z,1052.00
2018-04-18T17:46:42.728Z,1012.00
2018-04-18T17:47:42.672Z,984.00
2018-04-18T17:49:35.971Z,916.00
2018-04-18T17:50:35.898Z,888.00
2018-04-18T17:52:29.180Z,848.00